Time,TemperatureF,DewpointF,PressureIn,WindDirection,WindDirectionDegrees,WindSpeedMPH,WindSpeedGustMPH,Humidity,HourlyPrecipIn,Conditions,Clouds,dailyrainin,SolarRadiationWatts/m^2,SoftwareType,DateUTC
2013-09-19 05:00:00,47.0,46.0,29.89,West,270,15.0,-999.0,93,-99.99,,,-99.99,0.030000,,2013-09-19 11:00:00,
2013-09-19 05:53:00,47.0,46.0,29.89,West,270,15.0,-999.0,93,-99.99,,,-99.99,0.030000,,2013-09-19 11:53:00,
2013-09-19 07:00:00,46.0,44.0,29.98,NW,317,17.0,-999.0,94,-99.99,,,-99.99,0.830000,,2013-09-19 13:00:00,
2013-09-19 07:52:00,46.0,44.0,29.98,NW,317,17.0,-999.0,94,-99.99,,,-99.99,0.830000,,2013-09-19 13:52:00,
2013-09-19 08:00:00,45.0,44.0,30.00,NW,307,17.0,-999.0,94,-99.99,,,-99.99,24.549999,,2013-09-19 14:00:00,
2013-09-19 08:52:00,45.0,44.0,30.00,NW,307,17.0,-999.0,94,-99.99,,,-99.99,24.549999,,2013-09-19 14:52:00,
2013-09-19 10:00:00,46.0,43.0,30.03,WNW,296,17.0,-999.0,91,-99.99,,,-99.99,83.099998,,2013-09-19 16:00:00,
2013-09-19 10:53:00,46.0,43.0,30.03,WNW,296,17.0,-999.0,91,-99.99,,,-99.99,83.099998,,2013-09-19 16:53:00,
2013-09-19 11:00:00,46.0,43.0,30.05,WNW,296,18.0,-999.0,90,-99.99,,,-99.99,93.900002,,2013-09-19 17:00:00,
2013-09-19 11:53:00,46.0,43.0,30.05,WNW,296,18.0,-999.0,90,-99.99,,,-99.99,93.900002,,2013-09-19 17:53:00,
2013-09-19 12:00:00,49.0,43.0,30.04,WNW,297,17.0,-999.0,81,-99.99,,,-99.99,231.699997,,2013-09-19 18:00:00,
2013-09-19 12:52:00,49.0,43.0,30.04,WNW,297,17.0,-999.0,81,-99.99,,,-99.99,231.699997,,2013-09-19 18:52:00,
2013-09-19 16:00:00,52.0,42.0,30.06,WNW,299,16.0,-999.0,69,-99.99,,,-99.99,200.300003,,2013-09-19 22:00:00,
2013-09-19 16:53:00,52.0,42.0,30.06,WNW,299,16.0,-999.0,69,-99.99,,,-99.99,200.300003,,2013-09-19 22:53:00,
2013-09-19 17:00:00,53.0,42.0,30.06,WNW,299,15.0,-999.0,66,-99.99,,,-99.99,164.300003,,2013-09-19 23:00:00,
2013-09-19 17:53:00,53.0,42.0,30.06,WNW,299,15.0,-999.0,66,-99.99,,,-99.99,164.300003,,2013-09-19 23:53:00,
2013-09-19 19:00:00,52.0,42.0,30.05,WNW,295,12.0,-999.0,68,-99.99,,,-99.99,65.580002,,2013-09-20 01:00:00,
2013-09-19 19:52:00,52.0,42.0,30.05,WNW,295,12.0,-999.0,68,-99.99,,,-99.99,65.580002,,2013-09-20 01:52:00,
2013-09-19 20:00:00,47.0,41.0,30.05,West,262,8.0,-999.0,78,-99.99,,,-99.99,1.090000,,2013-09-20 02:00:00,
2013-09-19 20:53:00,47.0,41.0,30.05,West,262,8.0,-999.0,78,-99.99,,,-99.99,1.090000,,2013-09-20 02:53:00,
2013-09-19 21:00:00,45.0,42.0,30.06,West,265,6.0,-999.0,86,-99.99,,,-99.99,0.050000,,2013-09-20 03:00:00,
2013-09-19 21:56:00,45.0,42.0,30.06,West,265,6.0,-999.0,86,-99.99,,,-99.99,0.050000,,2013-09-20 03:56:00,
2013-09-19 22:00:00,42.0,39.0,30.06,West,274,7.0,-999.0,91,-99.99,,,-99.99,0.050000,,2013-09-20 04:00:00,
2013-09-19 22:54:00,42.0,39.0,30.06,West,274,7.0,-999.0,91,-99.99,,,-99.99,0.050000,,2013-09-20 04:54:00,
2013-09-19 23:00:00,43.0,40.0,30.07,West,273,6.0,-999.0,88,-99.99,,,-99.99,0.040000,,2013-09-20 05:00:00,
2013-09-19 23:53:00,43.0,40.0,30.07,West,273,6.0,-999.0,88,-99.99,,,-99.99,0.040000,,2013-09-20 05:53:00,